createdAt,value
2024-02-02T00:01:58.493Z,83.63
2024-02-02T00:05:27.056Z,83.31
2024-02-02T00:08:55.734Z,82.84
2024-02-02T00:12:24.678Z,82.42
2024-02-02T00:15:53.707Z,81.95
2024-02-02T00:19:22.303Z,81.41
2024-02-02T00:22:34.140Z,81.15
2024-02-02T00:26:02.726Z,80.90
2024-02-02T00:29:31.929Z,80.70
2024-02-02T00:33:00.649Z,80.57
2024-02-02T00:36:29.521Z,80.51
2024-02-02T00:39:58.318Z,80.26
2024-02-02T00:43:26.908Z,79.99
2024-02-02T00:46:55.504Z,79.85
2024-02-02T00:50:24.098Z,79.84
2024-02-02T00:53:52.725Z,79.71
2024-02-02T00:57:21.678Z,79.82
2024-02-02T01:00:50.560Z,79.91
2024-02-02T01:04:20.029Z,80.03
2024-02-02T01:07:48.918Z,80.27
2024-02-02T01:11:17.746Z,80.49
2024-02-02T01:14:46.257Z,80.54
2024-02-02T01:18:15.007Z,80.60
2024-02-02T01:21:44.482Z,80.72
2024-02-02T01:25:13.374Z,80.79
2024-02-02T01:28:41.949Z,80.83
2024-02-02T01:32:10.545Z,80.90
2024-02-02T01:35:39.128Z,81.11
2024-02-02T01:39:07.982Z,81.19
2024-02-02T01:42:36.667Z,81.31
2024-02-02T01:46:05.101Z,81.32
2024-02-02T01:49:33.837Z,81.38
2024-02-02T01:53:04.832Z,81.40
2024-02-02T01:56:33.418Z,81.43
2024-02-02T02:00:02.077Z,81.53
2024-02-02T02:03:30.967Z,81.53
2024-02-02T02:07:00.293Z,81.60
2024-02-02T02:10:29.145Z,81.64
2024-02-02T02:13:57.897Z,81.63
2024-02-02T02:17:26.491Z,81.52
2024-02-02T02:20:55.132Z,81.38
2024-02-02T02:24:23.753Z,81.33
2024-02-02T02:27:52.549Z,81.23
2024-02-02T02:31:21.166Z,81.24
2024-02-02T02:34:49.827Z,81.10
2024-02-02T02:38:18.653Z,80.96
2024-02-02T02:41:47.219Z,81.02
2024-02-02T02:45:13.259Z,80.94
2024-02-02T02:48:42.339Z,80.85
2024-02-02T02:52:11.150Z,80.58
2024-02-02T02:55:39.678Z,80.64
2024-02-02T02:59:07.407Z,80.58
2024-02-02T03:02:35.986Z,80.51
2024-02-02T03:06:04.689Z,80.44
2024-02-02T03:09:33.502Z,80.19
2024-02-02T03:13:02.065Z,80.07
2024-02-02T03:16:31.290Z,79.96
2024-02-02T03:20:01.310Z,79.64
2024-02-02T03:23:30.134Z,79.57
2024-02-02T03:26:58.732Z,79.51
2024-02-02T03:30:27.544Z,79.20
2024-02-02T03:33:56.360Z,79.10
2024-02-02T03:37:25.087Z,79.08
2024-02-02T03:40:53.994Z,79.03
2024-02-02T03:44:22.629Z,79.34
2024-02-02T03:47:51.518Z,79.19
2024-02-02T03:51:20.441Z,79.14
2024-02-02T03:54:51.427Z,79.26
2024-02-02T03:58:20.014Z,79.35
2024-02-02T04:01:48.645Z,79.45
2024-02-02T04:05:17.445Z,79.63
2024-02-02T04:08:46.401Z,79.65
2024-02-02T04:12:15.011Z,79.69
2024-02-02T04:15:44.701Z,79.75
2024-02-02T04:19:15.024Z,79.73
2024-02-02T04:22:43.838Z,79.63
2024-02-02T04:26:12.702Z,79.73
2024-02-02T04:29:41.615Z,79.66
2024-02-02T04:33:10.355Z,79.64
2024-02-02T04:36:32.588Z,79.71
2024-02-02T04:40:01.310Z,79.55
2024-02-02T04:43:29.131Z,79.57
2024-02-02T04:47:00.222Z,79.40
2024-02-02T04:50:28.877Z,79.53
2024-02-02T04:53:58.675Z,79.54
2024-02-02T04:57:27.275Z,79.66
2024-02-02T05:00:56.271Z,79.75
2024-02-02T05:04:25.062Z,79.83
2024-02-02T05:07:53.722Z,79.87
2024-02-02T05:11:22.530Z,79.99
2024-02-02T05:14:51.182Z,80.12
2024-02-02T05:18:20.013Z,80.37
2024-02-02T05:21:47.610Z,80.46
2024-02-02T05:25:16.462Z,80.62
2024-02-02T05:28:45.591Z,80.81
2024-02-02T05:32:14.188Z,80.87
2024-02-02T05:35:42.778Z,81.07
2024-02-02T05:39:11.449Z,81.12
2024-02-02T05:42:40.330Z,81.12
2024-02-02T05:46:09.647Z,81.18
2024-02-02T05:49:38.445Z,81.19
2024-02-02T05:53:07.573Z,81.16
2024-02-02T05:56:36.230Z,81.04
2024-02-02T06:00:05.142Z,81.07
2024-02-02T06:03:34.109Z,80.96
2024-02-02T06:07:03.045Z,80.91
2024-02-02T06:10:32.369Z,80.86
2024-02-02T06:14:00.959Z,80.84
2024-02-02T06:17:30.074Z,80.84
2024-02-02T06:20:58.784Z,80.78
2024-02-02T06:24:27.646Z,80.72
2024-02-02T06:27:56.215Z,80.62
2024-02-02T06:31:24.940Z,80.61
2024-02-02T06:34:53.567Z,80.68
2024-02-02T06:38:22.114Z,80.64
2024-02-02T06:41:50.632Z,80.51
2024-02-02T06:45:19.792Z,80.51
2024-02-02T06:48:59.013Z,80.38
2024-02-02T06:52:27.832Z,80.30
2024-02-02T06:55:56.507Z,80.19
2024-02-02T06:59:31.163Z,80.27
2024-02-02T07:02:59.721Z,79.75
2024-02-02T07:06:29.614Z,80.00
2024-02-02T07:10:01.127Z,79.86
2024-02-02T07:13:31.520Z,79.52
2024-02-02T07:17:09.109Z,79.40
2024-02-02T07:20:40.554Z,79.34
2024-02-02T07:23:48.544Z,79.20
2024-02-02T07:27:28.798Z,79.03
2024-02-02T07:31:06.650Z,79.03
2024-02-02T07:34:41.302Z,78.70
2024-02-02T07:38:21.816Z,77.89
2024-02-02T07:41:32.072Z,77.72
2024-02-02T07:45:00.724Z,77.48
2024-02-02T07:48:29.722Z,76.38
2024-02-02T07:51:58.454Z,76.65
2024-02-02T07:55:26.965Z,76.26
2024-02-02T07:58:55.638Z,75.89
2024-02-02T08:02:24.179Z,75.14
2024-02-02T08:05:52.941Z,74.96
2024-02-02T08:09:21.759Z,75.05
2024-02-02T08:12:50.322Z,74.71
2024-02-02T08:16:18.910Z,74.75
2024-02-02T08:19:47.521Z,74.05
2024-02-02T08:23:16.392Z,74.07
2024-02-02T08:26:45.342Z,73.89
2024-02-02T08:30:14.211Z,73.77
2024-02-02T08:33:42.953Z,74.41
2024-02-02T08:37:11.530Z,74.65
2024-02-02T08:40:40.450Z,74.69
2024-02-02T08:44:09.427Z,74.85
2024-02-02T08:47:38.044Z,74.54
2024-02-02T08:51:07.385Z,74.73
2024-02-02T08:54:36.459Z,74.90
2024-02-02T08:58:08.452Z,75.09
2024-02-02T09:01:43.011Z,74.77
2024-02-02T09:05:19.657Z,74.50
2024-02-02T09:08:51.952Z,74.91
2024-02-02T09:12:20.651Z,75.11
2024-02-02T09:15:49.552Z,75.11
2024-02-02T09:19:18.462Z,75.25
2024-02-02T09:22:47.217Z,75.46
2024-02-02T09:26:12.244Z,75.33
2024-02-02T09:29:41.214Z,75.45
2024-02-02T09:33:10.072Z,75.78
2024-02-02T09:36:39.034Z,75.93
2024-02-02T09:40:13.646Z,75.82
2024-02-02T09:43:48.555Z,75.65
2024-02-02T09:47:23.073Z,75.40
2024-02-02T09:51:10.091Z,75.76
2024-02-02T09:54:41.988Z,75.58
2024-02-02T09:58:14.470Z,74.62
2024-02-02T10:01:55.782Z,74.93
2024-02-02T10:05:45.803Z,74.80
2024-02-02T10:09:29.785Z,74.93
2024-02-02T10:13:16.648Z,74.72
2024-02-02T10:17:03.913Z,74.66
2024-02-02T10:20:53.031Z,74.66
2024-02-02T10:24:42.985Z,74.78
2024-02-02T10:28:29.544Z,74.65
2024-02-02T10:31:56.052Z,74.51
2024-02-02T10:35:39.471Z,74.48
2024-02-02T10:39:10.478Z,74.37
2024-02-02T10:42:48.354Z,74.96
2024-02-02T10:46:32.251Z,75.04
2024-02-02T10:50:24.726Z,74.81
2024-02-02T10:53:54.828Z,74.53
2024-02-02T10:57:23.726Z,74.72
2024-02-02T11:00:55.306Z,75.27
2024-02-02T11:04:30.459Z,74.90
2024-02-02T11:07:57.824Z,74.38
2024-02-02T11:11:32.208Z,73.83
2024-02-02T11:15:12.631Z,73.99
2024-02-02T11:18:21.222Z,74.22
2024-02-02T11:21:54.270Z,74.34
2024-02-02T11:25:34.730Z,74.55
2024-02-02T11:29:06.242Z,74.38
2024-02-02T11:32:56.449Z,74.16
2024-02-02T11:36:32.253Z,74.55
2024-02-02T11:40:05.609Z,74.20
2024-02-02T11:43:30.032Z,74.52
2024-02-02T11:46:58.531Z,73.79
2024-02-02T11:50:27.077Z,73.62
2024-02-02T11:54:04.939Z,73.77
2024-02-02T11:57:42.685Z,73.02
2024-02-02T12:01:27.027Z,72.54
2024-02-02T12:05:01.796Z,73.05
2024-02-02T12:08:42.617Z,73.45
2024-02-02T12:12:13.342Z,72.85
2024-02-02T12:15:45.152Z,73.23
2024-02-02T12:19:05.995Z,73.44
2024-02-02T12:22:35.257Z,73.37
2024-02-02T12:25:59.988Z,73.97
2024-02-02T12:29:28.597Z,72.70
2024-02-02T12:32:57.578Z,71.80
2024-02-02T12:36:26.225Z,72.06
2024-02-02T12:39:55.174Z,72.66
2024-02-02T12:43:23.993Z,72.57
2024-02-02T12:46:52.630Z,72.77
2024-02-02T12:50:14.442Z,72.78
2024-02-02T12:53:43.305Z,73.19
2024-02-02T12:57:11.999Z,73.35
2024-02-02T13:00:40.897Z,73.25
2024-02-02T13:04:08.703Z,73.62
2024-02-02T13:07:38.070Z,74.03
2024-02-02T13:11:15.905Z,74.31
2024-02-02T13:14:44.821Z,74.54
2024-02-02T13:18:13.729Z,75.00
2024-02-02T13:21:45.553Z,75.13
2024-02-02T13:25:26.254Z,75.26
2024-02-02T13:29:01.115Z,75.37
2024-02-02T13:32:29.730Z,75.40
2024-02-02T13:36:01.468Z,75.46
2024-02-02T13:39:29.465Z,75.47
2024-02-02T13:42:58.266Z,75.29
2024-02-02T13:46:26.777Z,75.20
2024-02-02T13:50:04.529Z,75.27
2024-02-02T13:53:33.232Z,74.76
2024-02-02T13:57:05.195Z,74.75
2024-02-02T14:00:36.732Z,74.86
2024-02-02T14:04:11.543Z,75.12
2024-02-02T14:07:40.314Z,75.26
2024-02-02T14:11:12.432Z,75.35
2024-02-02T14:14:41.317Z,75.53
2024-02-02T14:18:10.015Z,75.60
2024-02-02T14:21:38.975Z,75.72
2024-02-02T14:24:54.420Z,75.81
2024-02-02T14:28:23.135Z,75.81
2024-02-02T14:31:51.779Z,75.73
2024-02-02T14:35:20.420Z,75.68
2024-02-02T14:38:49.234Z,75.48
2024-02-02T14:42:17.844Z,75.44
2024-02-02T14:45:36.869Z,75.55
2024-02-02T14:49:09.177Z,75.28
2024-02-02T14:52:37.124Z,75.08
2024-02-02T14:56:05.991Z,74.83
2024-02-02T14:59:24.563Z,74.55
2024-02-02T15:02:28.541Z,74.74
2024-02-02T15:05:57.403Z,74.78
2024-02-02T15:09:26.030Z,74.74
2024-02-02T15:12:54.650Z,74.69
2024-02-02T15:16:23.268Z,74.81
2024-02-02T15:19:52.055Z,74.90
2024-02-02T15:23:20.948Z,74.90
2024-02-02T15:26:39.370Z,75.02
2024-02-02T15:30:08.073Z,75.13
2024-02-02T15:33:37.167Z,75.28
2024-02-02T15:37:08.823Z,75.43
2024-02-02T15:40:37.398Z,75.61
2024-02-02T15:44:06.317Z,75.72
2024-02-02T15:47:35.199Z,75.90
2024-02-02T15:50:55.744Z,75.88
2024-02-02T15:54:24.441Z,75.98
2024-02-02T15:57:53.477Z,76.08
2024-02-02T16:01:22.850Z,76.14
2024-02-02T16:04:51.676Z,76.26
2024-02-02T16:08:20.267Z,76.45
2024-02-02T16:11:51.148Z,76.55
2024-02-02T16:15:21.789Z,76.69
2024-02-02T16:18:50.575Z,76.75
2024-02-02T16:22:19.629Z,77.04
2024-02-02T16:25:50.873Z,77.19
2024-02-02T16:29:19.424Z,77.65
2024-02-02T16:32:48.113Z,77.78
2024-02-02T16:36:16.742Z,78.03
2024-02-02T16:39:46.541Z,78.53
2024-02-02T16:43:15.611Z,78.99
2024-02-02T16:46:37.081Z,79.09
2024-02-02T16:50:05.976Z,79.52
2024-02-02T16:53:34.713Z,79.56
2024-02-02T16:57:03.428Z,79.85
2024-02-02T17:00:25.090Z,79.90
2024-02-02T17:03:53.800Z,80.29
2024-02-02T17:07:23.644Z,80.55
2024-02-02T17:10:52.823Z,80.77
2024-02-02T17:14:21.633Z,80.79
2024-02-02T17:17:50.347Z,81.17
2024-02-02T17:21:19.152Z,81.16
2024-02-02T17:24:48.066Z,81.29
2024-02-02T17:28:16.947Z,81.61
2024-02-02T17:31:45.640Z,81.91
2024-02-02T17:35:05.280Z,81.97
2024-02-02T17:38:37.187Z,82.27
2024-02-02T17:42:05.929Z,82.42
2024-02-02T17:45:28.090Z,82.66
2024-02-02T17:48:56.718Z,82.87
2024-02-02T17:52:25.601Z,83.20
2024-02-02T17:55:44.844Z,83.37
2024-02-02T17:59:13.501Z,83.68
2024-02-02T18:02:42.121Z,83.87
2024-02-02T18:06:11.010Z,84.14
2024-02-02T18:09:39.706Z,84.27
2024-02-02T18:13:14.488Z,84.59
2024-02-02T18:16:43.147Z,84.82
2024-02-02T18:20:04.705Z,85.05
2024-02-02T18:23:12.948Z,85.23
2024-02-02T18:26:34.193Z,85.42
2024-02-02T18:30:02.849Z,85.68
2024-02-02T18:33:31.949Z,85.90
2024-02-02T18:37:02.152Z,86.14
2024-02-02T18:40:30.746Z,86.36
2024-02-02T18:43:59.312Z,86.58
2024-02-02T18:47:28.118Z,86.77
2024-02-02T18:50:56.791Z,87.08
2024-02-02T18:54:25.415Z,87.18
2024-02-02T18:57:53.978Z,87.34
2024-02-02T19:01:22.701Z,87.58
2024-02-02T19:04:51.614Z,87.72
2024-02-02T19:08:20.219Z,87.90
2024-02-02T19:11:41.631Z,87.94
2024-02-02T19:15:10.527Z,87.98
2024-02-02T19:18:39.169Z,88.03
2024-02-02T19:22:07.690Z,88.10
2024-02-02T19:25:36.535Z,88.13
2024-02-02T19:29:05.370Z,88.14
2024-02-02T19:32:34.122Z,88.17
2024-02-02T19:35:53.766Z,88.17
2024-02-02T19:39:22.295Z,88.18
2024-02-02T19:42:51.138Z,88.10
2024-02-02T19:46:20.026Z,88.11
2024-02-02T19:49:48.619Z,88.02
2024-02-02T19:53:17.501Z,87.87
2024-02-02T19:56:46.123Z,87.79
2024-02-02T20:00:15.270Z,87.73
2024-02-02T20:03:44.241Z,87.66
2024-02-02T20:07:13.138Z,87.59
2024-02-02T20:10:44.634Z,87.54
2024-02-02T20:14:13.132Z,87.58
2024-02-02T20:17:41.935Z,87.67
2024-02-02T20:21:12.013Z,87.86
2024-02-02T20:24:40.645Z,88.03
2024-02-02T20:28:07.658Z,88.06
2024-02-02T20:31:36.186Z,88.12
2024-02-02T20:35:04.920Z,88.27
2024-02-02T20:38:33.728Z,88.44
2024-02-02T20:42:05.390Z,88.58
2024-02-02T20:45:34.283Z,88.74
2024-02-02T20:49:02.927Z,88.90
2024-02-02T20:52:31.791Z,89.00
2024-02-02T20:56:00.718Z,89.21
2024-02-02T20:59:29.518Z,89.33
2024-02-02T21:02:58.095Z,89.53
2024-02-02T21:06:26.732Z,89.62
2024-02-02T21:09:54.622Z,89.73
2024-02-02T21:13:23.130Z,89.80
2024-02-02T21:16:51.913Z,89.84
2024-02-02T21:20:20.933Z,89.97
2024-02-02T21:23:49.649Z,90.10
2024-02-02T21:27:18.284Z,90.19
2024-02-02T21:30:47.280Z,90.28
2024-02-02T21:34:16.296Z,90.43
2024-02-02T21:37:45.153Z,90.49
2024-02-02T21:41:14.198Z,90.52
2024-02-02T21:44:43.158Z,90.62
2024-02-02T21:47:54.965Z,90.76
2024-02-02T21:51:23.885Z,90.75
2024-02-02T21:54:53.054Z,90.80
2024-02-02T21:58:14.611Z,91.00
2024-02-02T22:01:43.174Z,90.97
2024-02-02T22:05:13.535Z,90.97
2024-02-02T22:08:42.220Z,90.98
2024-02-02T22:12:10.816Z,91.05
2024-02-02T22:15:29.238Z,91.00
2024-02-02T22:19:00.544Z,91.03
2024-02-02T22:22:30.678Z,91.06
2024-02-02T22:25:59.326Z,91.14
2024-02-02T22:29:27.984Z,91.16
2024-02-02T22:32:56.616Z,91.16
2024-02-02T22:36:25.559Z,91.19
2024-02-02T22:39:57.806Z,91.26
2024-02-02T22:43:26.334Z,91.24
2024-02-02T22:46:54.940Z,91.24
2024-02-02T22:50:23.463Z,91.31
2024-02-02T22:53:52.103Z,91.36
2024-02-02T22:57:21.000Z,91.38
2024-02-02T23:00:49.951Z,91.32
2024-02-02T23:04:19.014Z,91.26
2024-02-02T23:07:47.720Z,91.20
2024-02-02T23:11:17.212Z,91.16
2024-02-02T23:14:45.778Z,91.13
2024-02-02T23:18:14.552Z,91.11
2024-02-02T23:21:43.299Z,90.99
2024-02-02T23:25:11.865Z,90.96
2024-02-02T23:28:40.441Z,90.94
2024-02-02T23:32:09.246Z,90.85
2024-02-02T23:35:37.771Z,90.78
2024-02-02T23:39:06.898Z,90.64
2024-02-02T23:42:35.734Z,90.57
2024-02-02T23:46:05.080Z,90.43
2024-02-02T23:49:33.754Z,90.31
2024-02-02T23:53:02.556Z,90.17
2024-02-02T23:56:33.438Z,89.96
